Time;durP1;ratioP1;P1;durP2;ratioP2;P2;SDS_P1;SDS_P2;PMS_P1;PMS_P2;Temp;Humidity;BMP_temperature;BMP_pressure;BME280_temperature;BME280_humidity;BME280_pressure;Samples;Min_cycle;Max_cycle;Signal;HPM_P1;HPM_P2
2023/06/30 00:01:33;;;;;;;3.08;2.53;;;;;;;;;;4392101;32;316722;-80
2023/06/30 00:04:01;;;;;;;3.90;2.55;;;;;;;;;;4401924;32;316605;-79
2023/06/30 00:06:29;;;;;;;3.37;2.83;;;;;;;;;;4391565;32;317075;-81
2023/06/30 00:08:58;;;;;;;3.30;2.92;;;;;;;;;;4402799;32;316765;-79
2023/06/30 00:11:25;;;;;;;2.92;2.58;;;;;;;;;;4392220;32;316708;-82
2023/06/30 00:13:55;;;;;;;4.78;2.60;;;;;;;;;;4401874;32;316616;-79
2023/06/30 00:16:22;;;;;;;3.78;2.72;;;;;;;;;;4389980;32;316577;-79
2023/06/30 00:18:49;;;;;;;3.37;2.80;;;;;;;;;;4402864;32;316718;-79
2023/06/30 00:21:17;;;;;;;5.85;2.80;;;;;;;;;;4399999;32;316725;-80
2023/06/30 00:23:45;;;;;;;4.28;2.78;;;;;;;;;;4402234;32;339631;-79
2023/06/30 00:26:13;;;;;;;2.58;2.37;;;;;;;;;;4400469;32;316601;-79
2023/06/30 00:28:41;;;;;;;4.57;3.03;;;;;;;;;;4391658;32;350190;-78
2023/06/30 00:31:08;;;;;;;3.67;2.53;;;;;;;;;;4399935;32;316991;-80
2023/06/30 00:33:36;;;;;;;6.28;2.60;;;;;;;;;;4391699;32;317005;-82
2023/06/30 00:36:04;;;;;;;3.80;2.97;;;;;;;;;;4402133;32;316680;-79
2023/06/30 00:38:31;;;;;;;4.32;3.10;;;;;;;;;;4390980;32;316947;-80
2023/06/30 00:40:58;;;;;;;3.05;2.70;;;;;;;;;;4402070;32;316643;-80
2023/06/30 00:43:27;;;;;;;3.67;3.00;;;;;;;;;;4390661;32;350459;-80
2023/06/30 00:45:55;;;;;;;6.00;3.20;;;;;;;;;;4401943;32;316608;-79
2023/06/30 00:48:23;;;;;;;3.05;2.55;;;;;;;;;;4390096;32;341209;-80
2023/06/30 00:50:51;;;;;;;8.32;2.67;;;;;;;;;;4402180;32;316542;-80
2023/06/30 00:53:19;;;;;;;3.30;3.00;;;;;;;;;;4391051;32;316817;-80
2023/06/30 00:55:47;;;;;;;3.05;2.70;;;;;;;;;;4401520;32;316844;-80
2023/06/30 00:58:14;;;;;;;2.70;2.35;;;;;;;;;;4401912;32;316829;-79
2023/06/30 01:00:44;;;;;;;3.12;2.85;;;;;;;;;;4391470;32;320575;-79
2023/06/30 01:03:16;;;;;;;4.07;2.85;;;;;;;;;;4401091;32;316887;-80
2023/06/30 01:05:52;;;;;;;6.07;3.03;;;;;;;;;;4389153;32;416266;-80
2023/06/30 01:08:26;;;;;;;3.03;2.72;;;;;;;;;;4390798;32;316984;-80
2023/06/30 01:10:54;;;;;;;12.73;2.97;;;;;;;;;;4401778;32;315836;-80
2023/06/30 01:13:23;;;;;;;3.45;2.87;;;;;;;;;;4390230;32;317878;-80
2023/06/30 01:15:55;;;;;;;3.45;2.60;;;;;;;;;;4401489;32;316786;-81
2023/06/30 01:18:23;;;;;;;3.40;2.90;;;;;;;;;;4390977;32;316803;-80
2023/06/30 01:20:52;;;;;;;4.18;2.60;;;;;;;;;;4400433;32;317028;-80
2023/06/30 01:23:29;;;;;;;4.18;2.58;;;;;;;;;;4389665;32;316775;-80
2023/06/30 01:25:58;;;;;;;4.95;2.90;;;;;;;;;;4399682;32;316648;-82
2023/06/30 01:28:27;;;;;;;3.78;2.62;;;;;;;;;;4390896;32;316661;-80
2023/06/30 01:30:56;;;;;;;3.90;3.40;;;;;;;;;;4399856;32;316792;-81
2023/06/30 01:33:26;;;;;;;5.22;2.78;;;;;;;;;;4391076;32;316714;-80
2023/06/30 01:35:53;;;;;;;4.32;2.58;;;;;;;;;;4399855;32;316819;-80
2023/06/30 01:38:21;;;;;;;5.68;2.97;;;;;;;;;;4389422;32;317069;-80
2023/06/30 01:40:48;;;;;;;4.07;3.10;;;;;;;;;;4399525;32;316953;-80
2023/06/30 01:43:16;;;;;;;4.00;3.58;;;;;;;;;;4401816;32;323844;-79
2023/06/30 01:45:44;;;;;;;6.50;3.30;;;;;;;;;;4388093;32;416364;-79
2023/06/30 01:48:13;;;;;;;5.12;3.28;;;;;;;;;;4401281;32;316677;-80
2023/06/30 01:50:41;;;;;;;3.60;3.00;;;;;;;;;;4388798;32;316752;-80
2023/06/30 01:53:08;;;;;;;4.00;2.90;;;;;;;;;;4399943;32;316961;-80
2023/06/30 01:55:36;;;;;;;4.53;3.50;;;;;;;;;;4391673;32;316940;-80
2023/06/30 01:58:03;;;;;;;7.35;3.90;;;;;;;;;;4399774;32;317031;-80
2023/06/30 02:00:31;;;;;;;4.07;3.37;;;;;;;;;;4390984;32;316842;-82
2023/06/30 02:02:58;;;;;;;5.32;3.42;;;;;;;;;;4400635;32;316641;-79
2023/06/30 02:05:27;;;;;;;5.35;3.90;;;;;;;;;;4391688;32;316621;-80
2023/06/30 02:07:55;;;;;;;4.03;3.35;;;;;;;;;;4401337;32;316802;-80
2023/06/30 02:10:22;;;;;;;3.75;3.28;;;;;;;;;;4386738;32;316876;-81
2023/06/30 02:12:49;;;;;;;7.75;3.67;;;;;;;;;;4401487;32;316797;-80
2023/06/30 02:15:17;;;;;;;3.92;3.37;;;;;;;;;;4401650;32;316713;-80
2023/06/30 02:17:44;;;;;;;4.40;3.62;;;;;;;;;;4387393;32;416240;-80
2023/06/30 02:20:13;;;;;;;4.78;3.50;;;;;;;;;;4401674;32;316847;-79
2023/06/30 02:22:42;;;;;;;4.78;3.60;;;;;;;;;;4389915;32;321751;-80
2023/06/30 02:25:09;;;;;;;5.50;3.42;;;;;;;;;;4400555;32;316964;-80
2023/06/30 02:27:36;;;;;;;11.55;3.33;;;;;;;;;;4389808;32;316733;-84
2023/06/30 02:30:05;;;;;;;4.12;3.28;;;;;;;;;;4401424;32;317798;-80
2023/06/30 02:32:33;;;;;;;6.80;2.95;;;;;;;;;;4390431;32;316764;-80
2023/06/30 02:35:00;;;;;;;5.93;4.07;;;;;;;;;;4398694;32;316701;-81
2023/06/30 02:37:27;;;;;;;12.63;3.05;;;;;;;;;;4389205;32;316677;-80
2023/06/30 02:39:56;;;;;;;4.25;3.33;;;;;;;;;;4401228;32;318088;-80
2023/06/30 02:42:24;;;;;;;5.55;3.15;;;;;;;;;;4390661;32;316538;-80
2023/06/30 02:44:51;;;;;;;5.62;3.30;;;;;;;;;;4399839;32;316844;-80
2023/06/30 02:47:18;;;;;;;5.55;3.20;;;;;;;;;;4389566;32;316829;-81
2023/06/30 02:49:46;;;;;;;4.95;3.05;;;;;;;;;;4401177;32;316748;-80
2023/06/30 02:52:13;;;;;;;4.10;3.40;;;;;;;;;;4400243;32;317091;-80
2023/06/30 02:54:40;;;;;;;4.75;3.65;;;;;;;;;;4390706;32;316813;-80
2023/06/30 02:57:09;;;;;;;6.15;3.00;;;;;;;;;;4401297;32;316755;-80
2023/06/30 02:59:36;;;;;;;4.00;3.08;;;;;;;;;;4390831;32;316579;-80
2023/06/30 03:02:04;;;;;;;3.78;3.15;;;;;;;;;;4401184;32;315549;-80
2023/06/30 03:04:32;;;;;;;4.32;3.58;;;;;;;;;;4390031;32;316933;-80
2023/06/30 03:06:59;;;;;;;4.82;3.37;;;;;;;;;;4399404;32;316753;-80
2023/06/30 03:09:27;;;;;;;5.22;3.62;;;;;;;;;;4390165;32;316883;-80
2023/06/30 03:11:54;;;;;;;5.78;3.70;;;;;;;;;;4398887;32;316872;-80
2023/06/30 03:14:23;;;;;;;9.40;4.07;;;;;;;;;;4391981;32;316683;-80
2023/06/30 03:16:50;;;;;;;5.85;3.83;;;;;;;;;;4402452;32;316774;-80
2023/06/30 03:19:18;;;;;;;4.22;3.30;;;;;;;;;;4395951;32;316589;-81
2023/06/30 03:21:45;;;;;;;6.82;3.83;;;;;;;;;;4401891;32;316819;-79
2023/06/30 03:24:12;;;;;;;10.25;3.90;;;;;;;;;;4403542;32;316624;-80
2023/06/30 03:26:40;;;;;;;5.72;3.78;;;;;;;;;;4392938;32;318193;-80
2023/06/30 03:29:07;;;;;;;8.55;4.12;;;;;;;;;;4402372;32;317056;-80
2023/06/30 03:31:36;;;;;;;6.15;4.37;;;;;;;;;;4393244;32;316801;-80
2023/06/30 03:34:04;;;;;;;8.45;3.97;;;;;;;;;;4401867;32;316778;-80
2023/06/30 03:36:31;;;;;;;4.72;3.97;;;;;;;;;;4390950;32;316615;-80
2023/06/30 03:38:58;;;;;;;4.47;4.00;;;;;;;;;;4403139;32;315662;-79
2023/06/30 03:41:26;;;;;;;6.57;3.70;;;;;;;;;;4393260;32;316684;-80
2023/06/30 03:43:54;;;;;;;7.20;3.72;;;;;;;;;;4403465;32;316697;-92
2023/06/30 03:46:21;;;;;;;4.55;3.92;;;;;;;;;;4389296;32;346258;-80
2023/06/30 03:48:50;;;;;;;6.35;4.07;;;;;;;;;;4403392;32;316825;-80
2023/06/30 03:51:17;;;;;;;6.30;4.10;;;;;;;;;;4393457;32;316921;-81
2023/06/30 03:53:45;;;;;;;7.03;4.22;;;;;;;;;;4403462;32;316918;-86
2023/06/30 03:56:12;;;;;;;4.65;3.20;;;;;;;;;;4402551;32;316901;-80
2023/06/30 03:58:40;;;;;;;4.68;3.17;;;;;;;;;;4393182;32;317246;-90
2023/06/30 04:01:07;;;;;;;10.77;4.28;;;;;;;;;;4400827;32;316855;-80
2023/06/30 04:03:35;;;;;;;6.43;3.62;;;;;;;;;;4392649;32;317690;-80
2023/06/30 04:06:04;;;;;;;7.60;3.90;;;;;;;;;;4402426;32;316708;-79
2023/06/30 04:08:31;;;;;;;9.80;4.00;;;;;;;;;;4391958;32;322401;-80
2023/06/30 04:10:59;;;;;;;6.30;4.32;;;;;;;;;;4402803;32;316876;-80
2023/06/30 04:13:26;;;;;;;5.32;3.60;;;;;;;;;;4393083;32;316734;-80
2023/06/30 04:15:54;;;;;;;6.70;3.97;;;;;;;;;;4402806;32;316652;-80
2023/06/30 04:18:21;;;;;;;7.45;4.22;;;;;;;;;;4387917;32;352427;-80
2023/06/30 04:20:48;;;;;;;4.80;4.20;;;;;;;;;;4401199;32;316701;-81
2023/06/30 04:23:17;;;;;;;7.60;4.55;;;;;;;;;;4402319;32;316758;-81
2023/06/30 04:25:45;;;;;;;4.65;4.00;;;;;;;;;;4389520;32;414971;-81
2023/06/30 04:28:13;;;;;;;8.90;4.25;;;;;;;;;;4402657;32;316720;-81
2023/06/30 04:30:40;;;;;;;4.65;3.97;;;;;;;;;;4391116;32;316706;-83
2023/06/30 04:33:08;;;;;;;7.87;3.62;;;;;;;;;;4402819;32;316727;-84
2023/06/30 04:35:35;;;;;;;5.05;3.92;;;;;;;;;;4392051;32;316637;-91
2023/06/30 04:38:03;;;;;;;6.75;4.80;;;;;;;;;;4402678;32;316603;-84
2023/06/30 04:40:32;;;;;;;5.15;3.65;;;;;;;;;;4390017;32;317175;-85
2023/06/30 04:43:00;;;;;;;6.05;4.10;;;;;;;;;;4402620;32;317372;-82
2023/06/30 04:45:27;;;;;;;10.25;3.90;;;;;;;;;;4391465;32;316533;-82
2023/06/30 04:47:54;;;;;;;8.65;4.03;;;;;;;;;;4400296;32;317961;-82
2023/06/30 04:50:24;;;;;;;6.10;3.97;;;;;;;;;;4391349;32;316803;-83
2023/06/30 04:52:52;;;;;;;10.77;4.55;;;;;;;;;;4402108;32;316684;-82
2023/06/30 04:55:19;;;;;;;5.97;4.07;;;;;;;;;;4388970;32;398647;-83
2023/06/30 04:57:48;;;;;;;6.82;4.68;;;;;;;;;;4402108;32;316796;-90
2023/06/30 05:00:16;;;;;;;4.97;4.05;;;;;;;;;;4400920;32;316604;-84
2023/06/30 05:02:43;;;;;;;7.53;4.12;;;;;;;;;;4389332;32;416087;-83
2023/06/30 05:05:12;;;;;;;4.90;4.07;;;;;;;;;;4402668;32;316890;-84
2023/06/30 05:07:39;;;;;;;7.72;4.20;;;;;;;;;;4389626;32;316785;-90
2023/06/30 05:10:08;;;;;;;5.70;3.53;;;;;;;;;;4402206;32;316557;-84
2023/06/30 05:12:35;;;;;;;5.93;4.22;;;;;;;;;;4390373;32;315539;-82
2023/06/30 05:15:05;;;;;;;10.15;4.50;;;;;;;;;;4402716;32;316746;-83
2023/06/30 05:17:32;;;;;;;6.67;4.30;;;;;;;;;;4388577;32;317790;-85
2023/06/30 05:20:05;;;;;;;5.95;4.32;;;;;;;;;;4401088;32;316956;-91
2023/06/30 05:22:32;;;;;;;9.60;4.37;;;;;;;;;;4391997;32;316736;-83
2023/06/30 05:24:59;;;;;;;7.97;3.92;;;;;;;;;;4400945;32;316938;-84
2023/06/30 05:27:27;;;;;;;12.98;4.32;;;;;;;;;;4391087;32;316725;-91
2023/06/30 05:29:54;;;;;;;11.18;4.50;;;;;;;;;;4401251;32;342810;-88
2023/06/30 05:32:23;;;;;;;15.20;4.25;;;;;;;;;;4390481;32;317968;-87
2023/06/30 05:34:51;;;;;;;9.65;5.10;;;;;;;;;;4401170;32;317598;-85
2023/06/30 05:37:19;;;;;;;6.57;4.80;;;;;;;;;;4391093;32;316678;-83
2023/06/30 05:39:46;;;;;;;31.98;8.27;;;;;;;;;;4400669;32;316589;-83
2023/06/30 05:42:13;;;;;;;9.23;5.20;;;;;;;;;;4400283;32;317886;-82
2023/06/30 05:44:41;;;;;;;6.07;4.40;;;;;;;;;;4390708;32;316649;-82
2023/06/30 05:47:08;;;;;;;4.65;4.15;;;;;;;;;;4401242;32;316769;-83
2023/06/30 05:49:38;;;;;;;10.45;4.40;;;;;;;;;;4390450;32;316615;-82
2023/06/30 05:52:07;;;;;;;7.50;4.30;;;;;;;;;;4398942;32;340957;-82
2023/06/30 05:54:34;;;;;;;9.27;5.22;;;;;;;;;;4391125;32;316879;-89
2023/06/30 05:57:01;;;;;;;8.07;4.00;;;;;;;;;;4399029;32;351138;-83
2023/06/30 05:59:30;;;;;;;6.70;4.05;;;;;;;;;;4391304;32;316938;-83
2023/06/30 06:01:58;;;;;;;4.40;3.75;;;;;;;;;;4400457;32;316759;-83
2023/06/30 06:04:26;;;;;;;4.35;3.50;;;;;;;;;;4391439;32;316639;-83
2023/06/30 06:06:55;;;;;;;6.45;4.80;;;;;;;;;;4400803;32;317083;-83
2023/06/30 06:09:22;;;;;;;13.50;4.75;;;;;;;;;;4390059;32;316774;-82
2023/06/30 06:11:50;;;;;;;15.25;5.78;;;;;;;;;;4400557;32;317733;-83
2023/06/30 06:14:19;;;;;;;5.00;3.92;;;;;;;;;;4400303;32;317975;-84
2023/06/30 06:16:46;;;;;;;5.12;4.10;;;;;;;;;;4387154;32;416332;-85
2023/06/30 06:19:14;;;;;;;4.00;3.62;;;;;;;;;;4401030;32;316707;-84
2023/06/30 06:21:42;;;;;;;5.35;3.65;;;;;;;;;;4391354;32;316667;-83
2023/06/30 06:24:12;;;;;;;5.37;4.87;;;;;;;;;;4401052;32;317021;-91
2023/06/30 06:26:39;;;;;;;10.15;4.25;;;;;;;;;;4388777;32;316671;-83
2023/06/30 06:29:07;;;;;;;8.98;3.90;;;;;;;;;;4400509;32;317891;-89
2023/06/30 06:31:34;;;;;;;7.47;4.25;;;;;;;;;;4388537;32;316919;-83
2023/06/30 06:34:02;;;;;;;6.90;4.25;;;;;;;;;;4401157;32;316631;-83
2023/06/30 06:36:29;;;;;;;4.53;4.13;;;;;;;;;;4389818;32;316861;-83
2023/06/30 06:38:57;;;;;;;11.52;5.62;;;;;;;;;;4399941;32;317138;-83
2023/06/30 06:41:25;;;;;;;6.97;4.57;;;;;;;;;;4390366;32;317701;-83
2023/06/30 06:43:53;;;;;;;5.35;4.45;;;;;;;;;;4401085;32;316793;-79
2023/06/30 06:46:20;;;;;;;5.72;4.07;;;;;;;;;;4388407;32;326222;-82
2023/06/30 06:48:48;;;;;;;3.90;3.50;;;;;;;;;;4403860;32;317071;-81
2023/06/30 06:51:15;;;;;;;4.30;3.65;;;;;;;;;;4403311;32;316886;-81
2023/06/30 06:53:43;;;;;;;5.72;4.03;;;;;;;;;;4393039;32;316617;-80
2023/06/30 06:56:11;;;;;;;3.45;3.10;;;;;;;;;;4400975;32;316715;-80
2023/06/30 06:58:39;;;;;;;8.57;4.32;;;;;;;;;;4393972;32;316820;-80
2023/06/30 07:01:07;;;;;;;9.10;4.15;;;;;;;;;;4403330;32;317043;-80
2023/06/30 07:03:35;;;;;;;10.80;5.10;;;;;;;;;;4391584;32;316775;-82
2023/06/30 07:06:02;;;;;;;5.30;4.35;;;;;;;;;;4403625;32;317832;-80
2023/06/30 07:08:34;;;;;;;4.62;4.00;;;;;;;;;;4393117;32;316705;-80
2023/06/30 07:11:02;;;;;;;5.43;3.60;;;;;;;;;;4403294;32;316883;-79
2023/06/30 07:13:30;;;;;;;6.35;3.83;;;;;;;;;;4393885;32;316861;-79
2023/06/30 07:15:59;;;;;;;6.32;3.75;;;;;;;;;;4402441;32;357146;-80
2023/06/30 07:18:26;;;;;;;4.45;3.75;;;;;;;;;;4393175;32;316833;-80
2023/06/30 07:20:54;;;;;;;4.32;3.80;;;;;;;;;;4400779;32;316934;-80
2023/06/30 07:23:22;;;;;;;4.62;3.67;;;;;;;;;;4392646;32;317160;-80
2023/06/30 07:25:50;;;;;;;4.87;3.97;;;;;;;;;;4403146;32;316980;-82
2023/06/30 07:28:17;;;;;;;5.40;3.67;;;;;;;;;;4403365;32;316741;-81
2023/06/30 07:30:44;;;;;;;5.78;3.70;;;;;;;;;;4389422;32;416441;-80
2023/06/30 07:33:13;;;;;;;4.00;3.55;;;;;;;;;;4402664;32;316981;-79
2023/06/30 07:35:41;;;;;;;4.78;4.07;;;;;;;;;;4390969;32;317082;-80
2023/06/30 07:38:08;;;;;;;4.97;3.60;;;;;;;;;;4403056;32;316658;-80
2023/06/30 07:40:36;;;;;;;13.07;4.55;;;;;;;;;;4392309;32;316976;-80
2023/06/30 07:43:03;;;;;;;4.90;4.00;;;;;;;;;;4402753;32;344545;-80
2023/06/30 07:45:31;;;;;;;13.67;4.23;;;;;;;;;;4390830;32;317041;-80
2023/06/30 07:47:58;;;;;;;5.18;3.35;;;;;;;;;;4403371;32;317656;-79
2023/06/30 07:50:27;;;;;;;10.60;4.12;;;;;;;;;;4390771;32;317204;-80
2023/06/30 07:52:54;;;;;;;14.38;3.60;;;;;;;;;;4401866;32;317840;-80
2023/06/30 07:55:22;;;;;;;5.70;3.45;;;;;;;;;;4391961;32;317649;-82
2023/06/30 07:57:51;;;;;;;4.03;3.45;;;;;;;;;;4402101;32;316697;-82
2023/06/30 08:00:19;;;;;;;4.20;3.75;;;;;;;;;;4392996;32;316682;-84
2023/06/30 08:02:47;;;;;;;4.93;3.97;;;;;;;;;;4400753;32;316847;-82
2023/06/30 08:05:15;;;;;;;8.18;4.37;;;;;;;;;;4403437;32;317015;-82
2023/06/30 08:07:45;;;;;;;4.72;4.15;;;;;;;;;;4391628;32;326131;-82
2023/06/30 08:10:12;;;;;;;4.03;3.62;;;;;;;;;;4402375;32;317021;-82
2023/06/30 08:12:40;;;;;;;8.82;4.50;;;;;;;;;;4391414;32;316606;-82
2023/06/30 08:15:08;;;;;;;7.97;3.83;;;;;;;;;;4403235;32;320319;-81
2023/06/30 08:17:36;;;;;;;5.10;3.90;;;;;;;;;;4390628;32;317334;-82
2023/06/30 08:20:03;;;;;;;5.70;3.33;;;;;;;;;;4403315;32;317082;-81
2023/06/30 08:22:30;;;;;;;5.30;3.93;;;;;;;;;;4389749;32;316850;-82
2023/06/30 08:24:59;;;;;;;4.70;3.62;;;;;;;;;;4400550;32;316994;-81
2023/06/30 08:27:26;;;;;;;5.75;4.07;;;;;;;;;;4390285;32;316860;-81
2023/06/30 08:29:54;;;;;;;5.70;3.97;;;;;;;;;;4402794;32;316729;-83
2023/06/30 08:32:21;;;;;;;4.78;3.80;;;;;;;;;;4390270;32;348106;-81
2023/06/30 08:34:48;;;;;;;7.28;3.75;;;;;;;;;;4401938;32;316611;-81
2023/06/30 08:37:16;;;;;;;6.95;3.75;;;;;;;;;;4401349;32;316875;-81
2023/06/30 08:39:43;;;;;;;4.57;4.03;;;;;;;;;;4387717;32;415996;-82
2023/06/30 08:42:14;;;;;;;3.85;3.22;;;;;;;;;;4401366;32;316994;-81
2023/06/30 08:44:46;;;;;;;4.75;3.55;;;;;;;;;;4392328;32;317330;-81
2023/06/30 08:47:15;;;;;;;4.28;3.80;;;;;;;;;;4401351;32;317158;-82
2023/06/30 08:49:43;;;;;;;4.03;3.55;;;;;;;;;;4387286;32;415939;-81
2023/06/30 08:52:12;;;;;;;4.30;3.90;;;;;;;;;;4402531;32;316945;-81
2023/06/30 08:54:39;;;;;;;5.15;3.85;;;;;;;;;;4391931;32;316864;-82
2023/06/30 08:57:07;;;;;;;4.55;4.03;;;;;;;;;;4402219;32;316620;-81
2023/06/30 08:59:36;;;;;;;4.25;3.85;;;;;;;;;;4389428;32;316879;-81
2023/06/30 09:02:04;;;;;;;6.62;3.35;;;;;;;;;;4401288;32;316855;-82
2023/06/30 09:04:32;;;;;;;7.30;3.78;;;;;;;;;;4390381;32;316743;-82
2023/06/30 09:07:02;;;;;;;4.47;3.22;;;;;;;;;;4401719;32;317011;-81
2023/06/30 09:09:33;;;;;;;4.93;4.07;;;;;;;;;;4391481;32;316680;-81
2023/06/30 09:12:00;;;;;;;4.55;3.60;;;;;;;;;;4401812;32;317084;-82
2023/06/30 09:14:33;;;;;;;4.82;3.25;;;;;;;;;;4389320;32;316937;-83
2023/06/30 09:17:02;;;;;;;4.60;3.40;;;;;;;;;;4400292;32;316922;-82
2023/06/30 09:19:29;;;;;;;5.03;3.50;;;;;;;;;;4390296;32;327799;-82
2023/06/30 09:21:57;;;;;;;4.30;3.17;;;;;;;;;;4401171;32;316789;-80
2023/06/30 09:24:25;;;;;;;5.05;3.70;;;;;;;;;;4391428;32;316857;-80
2023/06/30 09:26:54;;;;;;;5.60;4.28;;;;;;;;;;4399467;32;348364;-82
2023/06/30 09:30:16;;;;;;;4.18;3.45;;;;;;;;;;4455120;31;20619;-84
2023/06/30 09:32:43;;;;;;;3.97;3.17;;;;;;;;;;4432285;32;415771;-82
2023/06/30 09:35:16;;;;;;;8.05;3.42;;;;;;;;;;4444475;32;316947;-81
2023/06/30 09:37:45;;;;;;;3.80;3.40;;;;;;;;;;4432368;32;416476;-81
2023/06/30 09:40:13;;;;;;;4.20;3.12;;;;;;;;;;4444970;32;316854;-81
2023/06/30 09:42:41;;;;;;;8.32;3.40;;;;;;;;;;4433044;32;316781;-81
2023/06/30 09:45:10;;;;;;;3.85;3.53;;;;;;;;;;4444622;32;316724;-80
2023/06/30 09:47:39;;;;;;;8.52;3.80;;;;;;;;;;4434402;32;316794;-81
2023/06/30 09:50:08;;;;;;;3.90;3.50;;;;;;;;;;4445223;32;316642;-81
2023/06/30 09:52:37;;;;;;;6.90;3.80;;;;;;;;;;4419102;32;316920;-81
2023/06/30 09:55:10;;;;;;;4.28;3.20;;;;;;;;;;4428719;32;355150;-80
2023/06/30 09:57:39;;;;;;;5.18;4.28;;;;;;;;;;4419704;32;316791;-81
2023/06/30 10:00:08;;;;;;;11.02;4.12;;;;;;;;;;4427597;32;316959;-82
2023/06/30 10:02:36;;;;;;;3.80;3.47;;;;;;;;;;4417921;32;317860;-80
2023/06/30 10:05:05;;;;;;;4.18;3.65;;;;;;;;;;4429314;32;316909;-80
2023/06/30 10:07:33;;;;;;;12.13;9.90;;;;;;;;;;4416395;32;316984;-80
2023/06/30 10:10:02;;;;;;;5.37;4.20;;;;;;;;;;4428752;32;316779;-80
2023/06/30 10:12:32;;;;;;;7.82;3.83;;;;;;;;;;4417605;32;316678;-80
2023/06/30 10:15:00;;;;;;;4.93;3.80;;;;;;;;;;4429302;32;316780;-81
2023/06/30 10:17:29;;;;;;;7.12;3.60;;;;;;;;;;4416408;32;316599;-81
2023/06/30 10:19:57;;;;;;;6.45;3.53;;;;;;;;;;4427089;32;316947;-80
2023/06/30 10:22:26;;;;;;;5.68;3.15;;;;;;;;;;4416247;32;316730;-81
2023/06/30 10:24:55;;;;;;;9.90;3.65;;;;;;;;;;4426438;32;316809;-80
2023/06/30 10:27:24;;;;;;;4.12;3.08;;;;;;;;;;4417814;32;316842;-81
2023/06/30 10:29:52;;;;;;;3.08;2.78;;;;;;;;;;4426959;32;322092;-81
2023/06/30 10:32:21;;;;;;;10.40;3.72;;;;;;;;;;4418492;32;317019;-81
2023/06/30 10:34:49;;;;;;;4.57;3.55;;;;;;;;;;4428486;32;317857;-80
2023/06/30 10:37:16;;;;;;;5.57;3.42;;;;;;;;;;4428914;32;316581;-80
2023/06/30 10:39:46;;;;;;;8.07;3.12;;;;;;;;;;4410799;32;416333;-81
2023/06/30 10:42:16;;;;;;;9.85;3.35;;;;;;;;;;4417646;32;316713;-80
2023/06/30 10:44:46;;;;;;;3.33;2.80;;;;;;;;;;4404848;32;416370;-81
2023/06/30 10:47:14;;;;;;;3.85;2.95;;;;;;;;;;4417493;32;316730;-82
2023/06/30 10:49:43;;;;;;;6.30;3.22;;;;;;;;;;4404847;32;316880;-82
2023/06/30 10:52:12;;;;;;;4.53;3.05;;;;;;;;;;4417915;32;316998;-81
2023/06/30 10:54:41;;;;;;;4.00;3.22;;;;;;;;;;4405827;32;316810;-81
2023/06/30 10:57:13;;;;;;;5.20;3.33;;;;;;;;;;4416488;32;316975;-81
2023/06/30 10:59:43;;;;;;;5.22;2.87;;;;;;;;;;4405803;32;316981;-82
2023/06/30 11:02:15;;;;;;;3.20;2.90;;;;;;;;;;4417497;32;316933;-81
2023/06/30 11:04:43;;;;;;;4.22;3.35;;;;;;;;;;4407071;32;317153;-82
2023/06/30 11:07:11;;;;;;;5.45;3.42;;;;;;;;;;4417482;32;315642;-81
2023/06/30 11:09:59;;;;;;;3.85;2.90;;;;;;;;;;4407718;32;316744;-81
2023/06/30 11:12:29;;;;;;;8.27;3.22;;;;;;;;;;4406888;32;317151;-82
2023/06/30 11:14:58;;;;;;;5.43;2.83;;;;;;;;;;4415477;32;316951;-82
2023/06/30 11:17:26;;;;;;;5.10;2.93;;;;;;;;;;4406503;32;337563;-81
2023/06/30 11:20:00;;;;;;;3.80;2.75;;;;;;;;;;4415714;32;317183;-81
2023/06/30 11:22:31;;;;;;;3.70;3.10;;;;;;;;;;4408018;32;316900;-81
2023/06/30 11:24:58;;;;;;;3.58;2.80;;;;;;;;;;4418229;32;316950;-81
2023/06/30 11:27:31;;;;;;;2.53;2.33;;;;;;;;;;4406233;32;338123;-82
2023/06/30 11:30:00;;;;;;;3.70;2.50;;;;;;;;;;4415984;32;316709;-81
2023/06/30 11:32:29;;;;;;;2.83;2.25;;;;;;;;;;4407038;32;316728;-81
2023/06/30 11:35:01;;;;;;;3.15;2.25;;;;;;;;;;4416610;32;316829;-81
2023/06/30 11:37:29;;;;;;;4.50;2.97;;;;;;;;;;4406173;32;317202;-81
2023/06/30 11:39:58;;;;;;;4.68;3.25;;;;;;;;;;4415282;32;316701;-81
2023/06/30 11:42:26;;;;;;;5.75;2.45;;;;;;;;;;4407299;32;316699;-82
2023/06/30 11:44:55;;;;;;;3.25;2.50;;;;;;;;;;4417417;32;318606;-81
2023/06/30 11:47:23;;;;;;;8.35;3.03;;;;;;;;;;4405456;32;367139;-81
2023/06/30 11:49:51;;;;;;;3.55;2.67;;;;;;;;;;4416046;32;316927;-81
2023/06/30 11:52:19;;;;;;;3.90;2.60;;;;;;;;;;4407161;32;316689;-81
2023/06/30 11:54:47;;;;;;;10.30;2.78;;;;;;;;;;4416389;32;316759;-81
2023/06/30 11:57:14;;;;;;;4.05;2.80;;;;;;;;;;4415758;32;317778;-82
2023/06/30 11:59:42;;;;;;;2.50;2.30;;;;;;;;;;4407305;32;316714;-82
2023/06/30 12:02:12;;;;;;;3.05;2.50;;;;;;;;;;4417665;32;316917;-81
2023/06/30 12:04:47;;;;;;;2.72;2.33;;;;;;;;;;4404695;32;316757;-81
2023/06/30 12:07:16;;;;;;;3.50;2.55;;;;;;;;;;4416650;32;315618;-82
2023/06/30 12:09:43;;;;;;;2.80;2.30;;;;;;;;;;4403476;32;416091;-81
2023/06/30 12:12:10;;;;;;;3.47;2.78;;;;;;;;;;4417068;32;316797;-81
2023/06/30 12:14:41;;;;;;;3.90;2.22;;;;;;;;;;4405294;32;316877;-81
2023/06/30 12:17:10;;;;;;;3.42;2.55;;;;;;;;;;4416519;32;316856;-81
2023/06/30 12:19:38;;;;;;;4.80;2.58;;;;;;;;;;4404784;32;317342;-81
2023/06/30 12:22:07;;;;;;;2.78;2.00;;;;;;;;;;4416002;32;317037;-81
2023/06/30 12:24:37;;;;;;;3.10;2.22;;;;;;;;;;4404249;32;316915;-81
2023/06/30 12:27:06;;;;;;;3.17;2.42;;;;;;;;;;4402611;32;317043;-80
2023/06/30 12:29:35;;;;;;;5.35;2.37;;;;;;;;;;4404560;32;319311;-82
2023/06/30 12:32:12;;;;;;;5.57;2.30;;;;;;;;;;4416924;32;316873;-81
2023/06/30 12:34:40;;;;;;;2.97;2.20;;;;;;;;;;4405154;32;316917;-81
2023/06/30 12:37:08;;;;;;;4.10;2.60;;;;;;;;;;4416131;32;316652;-81
2023/06/30 12:39:35;;;;;;;3.03;2.15;;;;;;;;;;4406145;32;316896;-82
2023/06/30 12:42:03;;;;;;;2.60;1.98;;;;;;;;;;4416825;32;316743;-81
2023/06/30 12:44:31;;;;;;;3.40;1.73;;;;;;;;;;4405594;32;316752;-81
2023/06/30 12:47:03;;;;;;;1.90;1.73;;;;;;;;;;4414394;32;316741;-81
2023/06/30 12:49:30;;;;;;;4.07;2.08;;;;;;;;;;4404727;32;348822;-81
2023/06/30 12:52:00;;;;;;;2.37;2.03;;;;;;;;;;4415781;32;316901;-81
2023/06/30 12:54:27;;;;;;;6.03;1.80;;;;;;;;;;4406312;32;316743;-81
2023/06/30 12:56:54;;;;;;;1.95;1.75;;;;;;;;;;4416003;32;343737;-80
2023/06/30 12:59:22;;;;;;;2.40;1.98;;;;;;;;;;4403275;32;316783;-81
2023/06/30 13:01:49;;;;;;;2.45;1.75;;;;;;;;;;4416794;32;316732;-81
2023/06/30 13:04:17;;;;;;;4.22;2.10;;;;;;;;;;4416060;32;334231;-80
2023/06/30 13:06:44;;;;;;;2.55;1.98;;;;;;;;;;4402419;32;416000;-81
2023/06/30 13:09:13;;;;;;;2.50;1.67;;;;;;;;;;4416684;32;316897;-81
2023/06/30 13:11:42;;;;;;;2.95;1.80;;;;;;;;;;4404465;32;323034;-87
2023/06/30 13:14:09;;;;;;;2.03;1.62;;;;;;;;;;4415286;32;316736;-87
2023/06/30 13:16:38;;;;;;;2.30;1.62;;;;;;;;;;4406298;32;316811;-87
2023/06/30 13:19:05;;;;;;;2.10;1.60;;;;;;;;;;4415552;32;316718;-87
2023/06/30 13:21:33;;;;;;;1.95;1.70;;;;;;;;;;4405736;32;316606;-87
2023/06/30 13:24:00;;;;;;;3.67;1.60;;;;;;;;;;4415706;32;315998;-86
2023/06/30 13:26:29;;;;;;;4.03;1.80;;;;;;;;;;4405479;32;316924;-86
2023/06/30 13:28:57;;;;;;;4.40;2.05;;;;;;;;;;4415127;32;317074;-85
2023/06/30 13:31:24;;;;;;;3.67;2.10;;;;;;;;;;4404463;32;317023;-86
2023/06/30 13:33:51;;;;;;;5.62;1.77;;;;;;;;;;4415977;32;316927;-84
2023/06/30 13:36:19;;;;;;;3.83;2.03;;;;;;;;;;4400491;32;331848;-85
2023/06/30 13:38:47;;;;;;;2.62;2.00;;;;;;;;;;4415520;32;316873;-84
2023/06/30 13:41:14;;;;;;;2.00;1.80;;;;;;;;;;4415205;32;316872;-84
2023/06/30 13:43:43;;;;;;;2.67;1.98;;;;;;;;;;4406368;32;316929;-85
2023/06/30 13:46:10;;;;;;;2.37;1.92;;;;;;;;;;4415167;32;316688;-84
2023/06/30 13:48:38;;;;;;;4.80;1.75;;;;;;;;;;4404960;32;316708;-84
2023/06/30 13:51:05;;;;;;;3.10;2.47;;;;;;;;;;4415298;32;317164;-84
2023/06/30 13:53:32;;;;;;;3.25;2.00;;;;;;;;;;4406071;32;316853;-84
2023/06/30 13:56:00;;;;;;;6.43;2.00;;;;;;;;;;4415624;32;316772;-85
2023/06/30 13:58:28;;;;;;;2.80;1.95;;;;;;;;;;4404789;32;317095;-85
2023/06/30 14:00:57;;;;;;;1.73;1.62;;;;;;;;;;4416028;32;316550;-85
2023/06/30 14:03:24;;;;;;;2.70;2.00;;;;;;;;;;4404256;32;317472;-84
2023/06/30 14:05:52;;;;;;;4.03;1.90;;;;;;;;;;4413523;32;316978;-86
2023/06/30 14:08:20;;;;;;;3.80;1.67;;;;;;;;;;4404605;32;316992;-90
2023/06/30 14:10:48;;;;;;;2.72;2.00;;;;;;;;;;4415297;32;316768;-90
2023/06/30 14:13:15;;;;;;;2.33;2.10;;;;;;;;;;4415508;32;316693;-90
2023/06/30 14:15:43;;;;;;;3.22;1.95;;;;;;;;;;4408070;32;316596;-92
2023/06/30 14:18:13;;;;;;;2.25;1.87;;;;;;;;;;4421239;32;316953;-90
2023/06/30 14:20:40;;;;;;;2.80;2.22;;;;;;;;;;4407246;32;316719;-90
2023/06/30 14:23:07;;;;;;;3.80;2.55;;;;;;;;;;4418062;32;316533;-90
2023/06/30 14:25:35;;;;;;;4.53;2.08;;;;;;;;;;4408564;32;316682;-91
2023/06/30 14:28:02;;;;;;;4.68;2.30;;;;;;;;;;4417932;32;317192;-91
2023/06/30 14:30:31;;;;;;;2.72;2.00;;;;;;;;;;4407628;32;316465;-90
2023/06/30 14:33:00;;;;;;;7.75;2.25;;;;;;;;;;4418578;32;330700;-90
2023/06/30 14:35:30;;;;;;;2.60;1.92;;;;;;;;;;4407892;32;333471;-90